createdAt,value
2019-04-05T00:00:52.702Z,11.70
2019-04-05T00:03:22.257Z,10.95
2019-04-05T00:05:52.276Z,10.47
2019-04-05T00:08:21.826Z,11.20
2019-04-05T00:10:51.434Z,10.33
2019-04-05T00:13:21.031Z,11.10
2019-04-05T00:15:50.585Z,11.60
2019-04-05T00:18:20.394Z,12.77
2019-04-05T00:20:50.168Z,11.50
2019-04-05T00:23:19.723Z,10.97
2019-04-05T00:25:49.519Z,11.60
2019-04-05T00:28:19.064Z,11.30
2019-04-05T00:30:48.946Z,11.23
2019-04-05T00:33:18.492Z,12.57
2019-04-05T00:35:48.350Z,12.63
2019-04-05T00:38:17.901Z,11.40
2019-04-05T00:40:47.782Z,13.00
2019-04-05T00:43:17.891Z,11.37
2019-04-05T00:45:48.000Z,12.00
2019-04-05T00:48:17.751Z,12.50
2019-04-05T00:50:47.577Z,12.33
2019-04-05T00:53:17.193Z,12.87
2019-04-05T00:55:46.825Z,12.73
2019-04-05T00:58:16.767Z,13.35
2019-04-05T01:00:47.098Z,12.90
2019-04-05T01:03:16.619Z,13.00
2019-04-05T01:05:46.902Z,13.37
2019-04-05T01:08:16.459Z,13.30
2019-04-05T01:10:46.314Z,13.83
2019-04-05T01:13:16.425Z,13.63
2019-04-05T01:15:46.130Z,14.70
2019-04-05T01:18:16.490Z,13.20
2019-04-05T01:20:49.538Z,12.90
2019-04-05T01:23:21.224Z,11.50
2019-04-05T01:25:53.912Z,11.73
2019-04-05T01:28:25.333Z,11.22
2019-04-05T01:30:55.051Z,10.50
2019-04-05T01:33:24.664Z,9.68
2019-04-05T01:35:54.455Z,10.73
2019-04-05T01:38:24.816Z,9.97
2019-04-05T01:40:57.389Z,9.73
2019-04-05T01:43:27.273Z,11.50
2019-04-05T01:45:58.501Z,11.43
2019-04-05T01:48:28.064Z,11.63
2019-04-05T01:50:57.833Z,11.63
2019-04-05T01:53:27.849Z,11.63
2019-04-05T01:55:58.486Z,11.90
2019-04-05T01:58:28.185Z,11.30
2019-04-05T02:00:57.798Z,12.07
2019-04-05T02:03:27.808Z,10.93
2019-04-05T02:05:57.594Z,12.03
2019-04-05T02:08:27.446Z,11.77
2019-04-05T02:10:57.958Z,11.77
2019-04-05T02:13:27.777Z,11.80
2019-04-05T02:16:06.155Z,12.70
2019-04-05T02:18:28.972Z,11.03
2019-04-05T02:20:58.671Z,11.40
2019-04-05T02:23:28.305Z,12.77
2019-04-05T02:25:58.211Z,12.03
2019-04-05T02:28:27.957Z,11.80
2019-04-05T02:30:57.665Z,12.53
2019-04-05T02:33:27.256Z,12.20
2019-04-05T02:35:57.097Z,12.53
2019-04-05T02:38:26.790Z,12.20
2019-04-05T02:41:00.584Z,12.90
2019-04-05T02:43:35.434Z,12.53
2019-04-05T02:46:22.096Z,13.70
2019-04-05T02:48:42.114Z,13.90
2019-04-05T02:51:16.636Z,14.23
2019-04-05T02:53:48.386Z,13.77
2019-04-05T02:56:20.358Z,15.40
2019-04-05T02:58:50.815Z,15.00
2019-04-05T03:01:22.762Z,15.37
2019-04-05T03:03:52.965Z,15.43
2019-04-05T03:06:22.817Z,15.33
2019-04-05T03:08:53.772Z,15.73
2019-04-05T03:11:27.964Z,16.57
2019-04-05T03:14:02.242Z,16.50
2019-04-05T03:16:41.665Z,16.63
2019-04-05T03:19:15.049Z,16.63
2019-04-05T03:21:49.178Z,18.00
2019-04-05T03:24:23.841Z,17.13
2019-04-05T03:27:00.932Z,16.83
2019-04-05T03:29:32.282Z,18.07
2019-04-05T03:32:02.149Z,17.53
2019-04-05T03:34:32.319Z,18.73
2019-04-05T03:37:02.920Z,18.97
2019-04-05T03:39:33.705Z,17.10
2019-04-05T03:42:04.631Z,17.80
2019-04-05T03:44:34.680Z,18.00
2019-04-05T03:47:04.913Z,17.57
2019-04-05T03:49:35.264Z,18.47
2019-04-05T03:52:06.563Z,18.30
2019-04-05T03:54:37.038Z,17.83
2019-04-05T03:57:07.442Z,18.60
2019-04-05T03:59:37.291Z,17.83
2019-04-05T04:02:07.165Z,18.40
2019-04-05T04:04:37.363Z,17.90
2019-04-05T04:07:07.086Z,26.07
2019-04-05T04:09:36.901Z,25.00
2019-04-05T04:12:07.517Z,17.70
2019-04-05T04:14:37.633Z,17.57
2019-04-05T04:17:12.592Z,16.33
2019-04-05T04:19:39.404Z,16.27
2019-04-05T04:22:26.003Z,16.57
2019-04-05T04:24:56.201Z,32.03
2019-04-05T04:27:26.655Z,19.03
2019-04-05T04:30:00.248Z,16.07
2019-04-05T04:32:29.328Z,15.00
2019-04-05T04:34:59.159Z,15.43
2019-04-05T04:37:29.586Z,14.77
2019-04-05T04:39:59.730Z,15.40
2019-04-05T04:42:30.724Z,15.63
2019-04-05T04:45:11.403Z,14.53
2019-04-05T04:47:32.717Z,14.60
2019-04-05T04:50:03.156Z,15.00
2019-04-05T04:52:34.479Z,14.60
2019-04-05T04:55:06.383Z,14.80
2019-04-05T04:57:36.267Z,14.77
2019-04-05T05:00:07.429Z,15.60
2019-04-05T05:02:37.563Z,15.13
2019-04-05T05:05:09.112Z,15.90
2019-04-05T05:07:39.030Z,14.90
2019-04-05T05:10:09.482Z,15.33
2019-04-05T05:12:39.740Z,14.83
2019-04-05T05:15:10.213Z,16.73
2019-04-05T05:17:40.201Z,16.30
2019-04-05T05:20:10.585Z,24.13
2019-04-05T05:22:40.143Z,17.70
2019-04-05T05:25:10.617Z,16.07
2019-04-05T05:27:40.509Z,17.23
2019-04-05T05:30:11.962Z,17.00
2019-04-05T05:32:41.801Z,18.30
2019-04-05T05:35:11.350Z,20.87
2019-04-05T05:37:41.839Z,25.10
2019-04-05T05:40:12.080Z,21.47
2019-04-05T05:42:41.855Z,18.30
2019-04-05T05:45:12.103Z,16.57
2019-04-05T05:47:51.643Z,16.83
2019-04-05T05:50:13.837Z,18.03
2019-04-05T05:52:44.387Z,16.37
2019-04-05T05:55:14.370Z,19.83
2019-04-05T05:57:43.978Z,19.63
2019-04-05T06:00:16.395Z,19.07
2019-04-05T06:02:48.443Z,17.97
2019-04-05T06:05:18.051Z,18.10
2019-04-05T06:07:47.595Z,16.53
2019-04-05T06:10:17.816Z,16.80
2019-04-05T06:12:47.424Z,15.50
2019-04-05T06:15:17.286Z,15.77
2019-04-05T06:17:46.908Z,15.00
2019-04-05T06:20:18.167Z,15.50
2019-04-05T06:22:47.870Z,15.90
2019-04-05T06:25:17.569Z,15.63
2019-04-05T06:27:47.130Z,16.10
2019-04-05T06:30:16.989Z,16.37
2019-04-05T06:32:47.288Z,15.90
2019-04-05T06:35:16.919Z,15.83
2019-04-05T06:37:46.734Z,16.42
2019-04-05T06:40:41.125Z,15.50
2019-04-05T06:43:07.828Z,13.53
2019-04-05T06:45:37.380Z,14.70
2019-04-05T06:48:18.380Z,40.87
2019-04-05T06:50:38.405Z,33.07
2019-04-05T06:53:07.958Z,16.53
2019-04-05T06:55:38.208Z,15.57
2019-04-05T06:58:10.319Z,15.37
2019-04-05T07:00:39.116Z,15.53
2019-04-05T07:03:08.987Z,16.40
2019-04-05T07:05:38.911Z,18.37
2019-04-05T07:08:08.462Z,30.47
2019-04-05T07:10:38.102Z,25.63
2019-04-05T07:13:07.828Z,17.50
2019-04-05T07:15:37.658Z,18.37
2019-04-05T07:18:07.293Z,18.60
2019-04-05T07:20:36.850Z,19.47
2019-04-05T07:23:06.398Z,18.17
2019-04-05T07:25:36.160Z,18.33
2019-04-05T07:28:06.682Z,18.67
2019-04-05T07:30:36.622Z,18.17
2019-04-05T07:33:06.156Z,17.30
2019-04-05T07:35:35.999Z,16.80
2019-04-05T07:38:05.954Z,15.95
2019-04-05T07:40:35.502Z,16.23
2019-04-05T07:43:05.292Z,16.97
2019-04-05T07:45:34.843Z,22.03
2019-04-05T07:48:04.554Z,17.83
2019-04-05T07:50:34.107Z,17.63
2019-04-05T07:53:03.657Z,18.15
2019-04-05T07:55:33.473Z,16.80
2019-04-05T07:58:03.174Z,15.27
2019-04-05T08:00:46.497Z,13.50
2019-04-05T08:03:16.957Z,15.37
2019-04-05T08:05:47.777Z,15.60
2019-04-05T08:08:39.533Z,14.97
2019-04-05T08:11:09.612Z,15.90
2019-04-05T08:13:43.365Z,17.70
2019-04-05T08:16:13.935Z,14.03
2019-04-05T08:18:56.662Z,13.90
2019-04-05T08:21:15.402Z,16.17
2019-04-05T08:23:44.950Z,15.80
2019-04-05T08:26:14.650Z,15.13
2019-04-05T08:28:44.238Z,15.20
2019-04-05T08:31:14.675Z,16.37
2019-04-05T08:33:44.565Z,15.43
2019-04-05T08:36:14.127Z,15.67
2019-04-05T08:38:43.975Z,15.90
2019-04-05T08:41:13.512Z,15.00
2019-04-05T08:43:43.194Z,15.03
2019-04-05T08:46:12.931Z,14.77
2019-04-05T08:48:42.608Z,15.93
2019-04-05T08:51:12.144Z,15.20
2019-04-05T08:53:41.708Z,15.30
2019-04-05T08:56:11.454Z,13.17
2019-04-05T08:58:41.231Z,12.73
2019-04-05T09:01:10.771Z,10.67
2019-04-05T09:03:41.466Z,10.50
2019-04-05T09:06:11.008Z,9.90
2019-04-05T09:08:40.662Z,10.60
2019-04-05T09:11:10.352Z,11.33
2019-04-05T09:13:40.086Z,10.57
2019-04-05T09:16:11.785Z,11.10
2019-04-05T09:18:41.074Z,11.10
2019-04-05T09:21:10.724Z,12.43
2019-04-05T09:23:40.583Z,11.30
2019-04-05T09:26:10.122Z,12.00
2019-04-05T09:28:39.746Z,11.90
2019-04-05T09:31:09.502Z,13.07
2019-04-05T09:33:39.039Z,13.67
2019-04-05T09:36:08.582Z,14.67
2019-04-05T09:38:38.557Z,14.67
2019-04-05T09:41:08.535Z,16.17
2019-04-05T09:43:38.638Z,16.63
2019-04-05T09:46:08.181Z,15.37
2019-04-05T09:48:38.053Z,15.63
2019-04-05T09:51:07.840Z,15.13
2019-04-05T09:53:37.411Z,15.27
2019-04-05T09:56:07.267Z,15.30
2019-04-05T09:58:37.316Z,15.10
2019-04-05T10:01:06.865Z,15.57
2019-04-05T10:03:36.420Z,14.30
2019-04-05T10:06:06.628Z,14.77
2019-04-05T10:08:36.188Z,13.57
2019-04-05T10:11:05.895Z,13.60
2019-04-05T10:13:35.551Z,14.23
2019-04-05T10:16:05.377Z,12.70
2019-04-05T10:18:34.955Z,12.13
2019-04-05T10:21:04.685Z,12.43
2019-04-05T10:23:34.241Z,12.93
2019-04-05T10:26:04.831Z,11.67
2019-04-05T10:28:34.637Z,10.90
2019-04-05T10:31:04.189Z,11.67
2019-04-05T10:33:33.732Z,11.17
2019-04-05T10:36:03.975Z,10.20
2019-04-05T10:38:33.526Z,11.20
2019-04-05T10:41:03.400Z,10.57
2019-04-05T10:43:32.947Z,10.77
2019-04-05T10:46:03.022Z,11.87
2019-04-05T10:48:35.426Z,12.07
2019-04-05T10:51:04.839Z,12.63
2019-04-05T10:53:34.388Z,12.30
2019-04-05T10:56:04.479Z,11.50
2019-04-05T10:58:34.830Z,11.97
2019-04-05T11:01:04.987Z,13.03
2019-04-05T11:03:34.848Z,12.37
2019-04-05T11:06:04.947Z,12.67
2019-04-05T11:08:34.682Z,34.43
2019-04-05T11:11:04.226Z,13.10
2019-04-05T11:13:34.077Z,12.57
2019-04-05T11:16:04.770Z,12.43
2019-04-05T11:18:34.360Z,12.17
2019-04-05T11:21:04.221Z,11.30
2019-04-05T11:23:33.934Z,10.73
2019-04-05T11:26:03.618Z,11.27
2019-04-05T11:28:33.347Z,11.67
2019-04-05T11:31:02.965Z,11.73
2019-04-05T11:33:32.977Z,10.77
2019-04-05T11:36:02.687Z,11.63
2019-04-05T11:38:32.302Z,11.47
2019-04-05T11:41:02.509Z,11.93
2019-04-05T11:43:36.070Z,12.45
2019-04-05T11:46:06.040Z,12.50
2019-04-05T11:48:36.437Z,16.43
2019-04-05T11:51:05.980Z,12.87
2019-04-05T11:53:35.767Z,12.10
2019-04-05T11:56:14.689Z,11.73
2019-04-05T11:58:37.154Z,14.33
2019-04-05T12:01:11.450Z,12.73
2019-04-05T12:03:41.362Z,14.23
2019-04-05T12:06:11.083Z,13.40
2019-04-05T12:08:40.766Z,13.77
2019-04-05T12:11:10.315Z,12.50
2019-04-05T12:13:40.204Z,12.27
2019-04-05T12:16:10.633Z,14.80
2019-04-05T12:18:40.420Z,14.23
2019-04-05T12:21:10.149Z,10.43
2019-04-05T12:23:39.853Z,10.63
2019-04-05T12:26:09.395Z,9.97
2019-04-05T12:28:39.110Z,10.00
2019-04-05T12:31:08.660Z,10.30
2019-04-05T12:33:38.299Z,11.23
2019-04-05T12:36:07.968Z,11.23
2019-04-05T12:38:37.525Z,10.60
2019-04-05T12:41:10.714Z,11.37
2019-04-05T12:43:38.738Z,11.23
2019-04-05T12:46:08.446Z,11.17
2019-04-05T12:48:39.399Z,11.03
2019-04-05T12:51:09.087Z,10.57
2019-04-05T12:53:38.634Z,16.53
2019-04-05T12:56:08.512Z,11.60
2019-04-05T12:58:38.426Z,12.13
2019-04-05T13:01:08.577Z,10.87
2019-04-05T13:03:38.355Z,10.47
2019-04-05T13:06:08.975Z,9.67
2019-04-05T13:08:38.897Z,10.43
2019-04-05T13:11:08.640Z,9.73
2019-04-05T13:13:38.190Z,9.43
2019-04-05T13:16:10.701Z,9.10
2019-04-05T13:18:39.459Z,8.80
2019-04-05T13:21:15.069Z,9.03
2019-04-05T13:23:40.427Z,8.78
2019-04-05T13:26:12.361Z,9.30
2019-04-05T13:28:41.493Z,8.50
2019-04-05T13:31:11.106Z,10.63
2019-04-05T13:33:41.096Z,10.20
2019-04-05T13:36:10.644Z,11.60
2019-04-05T13:38:40.206Z,12.77
2019-04-05T13:41:09.839Z,13.50
2019-04-05T13:43:39.384Z,13.47
2019-04-05T13:46:21.032Z,13.00
2019-04-05T13:48:40.688Z,12.47
2019-04-05T13:51:12.161Z,10.70
2019-04-05T13:53:41.579Z,10.87
2019-04-05T13:56:11.351Z,10.37
2019-04-05T13:58:41.454Z,10.00
2019-04-05T14:01:11.168Z,10.70
2019-04-05T14:03:40.718Z,11.30
2019-04-05T14:06:10.815Z,10.57
2019-04-05T14:08:41.882Z,11.37
2019-04-05T14:11:12.035Z,12.37
2019-04-05T14:13:42.946Z,14.23
2019-04-05T14:16:13.104Z,15.93
2019-04-05T14:18:47.983Z,17.63
2019-04-05T14:21:14.293Z,19.20
2019-04-05T14:23:44.069Z,17.83
2019-04-05T14:26:13.774Z,17.10
2019-04-05T14:28:43.318Z,18.17
2019-04-05T14:31:12.983Z,18.53
2019-04-05T14:33:42.699Z,17.00
2019-04-05T14:36:12.245Z,18.13
2019-04-05T14:38:42.016Z,17.87
2019-04-05T14:41:11.583Z,17.77
2019-04-05T14:43:44.547Z,16.93
2019-04-05T14:46:13.755Z,20.63
2019-04-05T14:48:43.310Z,22.10
2019-04-05T14:51:13.130Z,22.67
2019-04-05T14:53:42.806Z,20.77
2019-04-05T14:56:12.357Z,20.60
2019-04-05T14:58:42.228Z,19.63
2019-04-05T15:01:12.335Z,16.50
2019-04-05T15:03:42.270Z,15.13
2019-04-05T15:06:11.967Z,14.37
2019-04-05T15:08:41.705Z,13.87
2019-04-05T15:11:11.414Z,12.80
2019-04-05T15:13:40.930Z,15.70
2019-04-05T15:16:11.663Z,13.37
2019-04-05T15:18:42.207Z,13.87
2019-04-05T15:21:11.754Z,13.67
2019-04-05T15:23:45.250Z,13.53
2019-04-05T15:26:12.927Z,14.13
2019-04-05T15:28:42.647Z,12.63
2019-04-05T15:31:12.199Z,12.97
2019-04-05T15:33:41.855Z,12.20
2019-04-05T15:36:11.413Z,12.70
2019-04-05T15:38:40.980Z,13.03
2019-04-05T15:41:11.383Z,13.63
2019-04-05T15:43:41.009Z,13.27
2019-04-05T15:46:11.216Z,14.20
2019-04-05T15:48:40.895Z,13.57
2019-04-05T15:51:10.437Z,14.47
2019-04-05T15:53:40.540Z,14.23
2019-04-05T15:56:10.095Z,15.27
2019-04-05T15:58:39.669Z,12.97
2019-04-05T16:01:09.329Z,13.13
2019-04-05T16:03:39.113Z,12.23
2019-04-05T16:06:08.926Z,12.20
2019-04-05T16:08:38.788Z,11.93
2019-04-05T16:11:08.363Z,11.70
2019-04-05T16:13:37.875Z,14.57
2019-04-05T16:16:07.730Z,15.63
2019-04-05T16:18:37.275Z,13.63
2019-04-05T16:21:06.886Z,14.60
2019-04-05T16:23:36.747Z,12.73
2019-04-05T16:26:06.765Z,11.90
2019-04-05T16:28:36.420Z,13.00
2019-04-05T16:31:06.572Z,12.80
2019-04-05T16:33:37.299Z,12.73
2019-04-05T16:36:06.918Z,12.40
2019-04-05T16:38:36.543Z,12.77
2019-04-05T16:41:06.194Z,12.60
2019-04-05T16:43:35.753Z,14.10
2019-04-05T16:46:05.299Z,13.43
2019-04-05T16:48:35.154Z,13.30
2019-04-05T16:51:04.723Z,13.00
2019-04-05T16:53:34.265Z,13.77
2019-04-05T16:56:05.081Z,13.73
2019-04-05T16:58:34.742Z,12.70
2019-04-05T17:01:04.376Z,14.30
2019-04-05T17:03:33.925Z,14.17
2019-04-05T17:06:03.616Z,13.17
2019-04-05T17:08:33.308Z,14.87
2019-04-05T17:11:02.896Z,15.60
2019-04-05T17:13:32.444Z,14.07
2019-04-05T17:16:02.346Z,14.73
2019-04-05T17:18:33.094Z,15.37
2019-04-05T17:21:02.654Z,14.20
2019-04-05T17:23:33.256Z,15.13
2019-04-05T17:26:04.728Z,14.63
2019-04-05T17:28:34.772Z,15.70
2019-04-05T17:31:04.502Z,14.27
2019-04-05T17:33:34.052Z,15.03
2019-04-05T17:36:03.894Z,22.80
2019-04-05T17:38:33.610Z,15.03
2019-04-05T17:41:03.166Z,14.67
2019-04-05T17:43:33.015Z,15.73
2019-04-05T17:46:02.638Z,15.37
2019-04-05T17:48:32.438Z,16.23
2019-04-05T17:51:01.992Z,22.60
2019-04-05T17:53:31.852Z,18.10
2019-04-05T17:56:01.965Z,15.30
2019-04-05T17:58:34.422Z,15.97
2019-04-05T18:01:04.139Z,15.03
2019-04-05T18:03:33.680Z,15.97
2019-04-05T18:06:03.344Z,16.90
2019-04-05T18:08:32.899Z,15.40
2019-04-05T18:11:02.886Z,16.23
2019-04-05T18:13:32.517Z,15.70
2019-04-05T18:16:02.096Z,15.27
2019-04-05T18:18:31.818Z,16.30
2019-04-05T18:21:01.804Z,15.73
2019-04-05T18:23:31.629Z,15.60
2019-04-05T18:26:01.180Z,15.57
2019-04-05T18:28:31.044Z,15.57
2019-04-05T18:31:00.591Z,15.28
2019-04-05T18:33:30.259Z,17.00
2019-04-05T18:36:00.393Z,16.27
2019-04-05T18:38:29.936Z,16.50
2019-04-05T18:40:59.471Z,15.90
2019-04-05T18:43:29.140Z,16.07
2019-04-05T18:45:58.702Z,18.15
2019-04-05T18:48:28.538Z,21.70
2019-04-05T18:50:58.058Z,16.13
2019-04-05T18:53:36.978Z,17.03
2019-04-05T18:55:58.993Z,16.03
2019-04-05T18:58:28.539Z,16.50
2019-04-05T19:00:59.105Z,16.47
2019-04-05T19:03:28.683Z,17.17
2019-04-05T19:05:58.218Z,17.23
2019-04-05T19:08:39.043Z,17.63
2019-04-05T19:10:59.298Z,17.13
2019-04-05T19:13:28.888Z,17.07
2019-04-05T19:15:58.474Z,17.87
2019-04-05T19:18:28.921Z,17.20
2019-04-05T19:20:58.579Z,17.53
2019-04-05T19:23:28.727Z,18.80
2019-04-05T19:25:58.277Z,24.13
2019-04-05T19:28:27.896Z,27.03
2019-04-05T19:48:37.089Z,19.80
2019-04-05T19:51:06.779Z,19.43
2019-04-05T19:53:36.330Z,23.07
2019-04-05T19:56:06.018Z,20.17
2019-04-05T19:58:35.570Z,19.37
2019-04-05T20:01:05.415Z,19.43
2019-04-05T20:03:35.338Z,19.43
2019-04-05T20:06:05.112Z,20.68
2019-04-05T20:08:34.705Z,20.07
2019-04-05T20:11:04.439Z,20.20
2019-04-05T20:13:33.995Z,19.83
2019-04-05T20:16:03.680Z,18.77
2019-04-05T20:18:33.239Z,19.33
2019-04-05T20:21:02.787Z,19.80
2019-04-05T20:23:32.584Z,19.60
2019-04-05T20:26:02.163Z,19.87
2019-04-05T20:28:31.693Z,19.70
2019-04-05T20:31:02.320Z,18.97
2019-04-05T20:33:31.859Z,19.87
2019-04-05T20:36:01.444Z,19.73
2019-04-05T20:38:31.090Z,19.90
2019-04-05T20:41:03.027Z,20.77
2019-04-05T20:43:33.008Z,20.03
2019-04-05T20:46:02.774Z,20.43
2019-04-05T20:48:33.152Z,21.17
2019-04-05T20:51:02.871Z,20.90
2019-04-05T20:53:32.426Z,21.47
2019-04-05T20:56:02.770Z,20.13
2019-04-05T20:58:32.310Z,20.30
2019-04-05T21:01:01.870Z,19.87
2019-04-05T21:03:31.606Z,21.33
2019-04-05T21:06:01.515Z,21.73
2019-04-05T21:08:31.070Z,20.23
2019-04-05T21:11:00.619Z,20.47
2019-04-05T21:13:30.848Z,21.07
2019-04-05T21:16:00.552Z,21.23
2019-04-05T21:18:30.252Z,21.47
2019-04-05T21:21:00.296Z,20.43
2019-04-05T21:23:30.084Z,19.00
2019-04-05T21:25:59.636Z,20.67
2019-04-05T21:28:29.190Z,20.97
2019-04-05T21:30:59.010Z,21.03
2019-04-05T21:33:28.579Z,20.63
2019-04-05T21:35:58.105Z,19.93
2019-04-05T21:38:27.927Z,19.73
2019-04-05T21:40:57.495Z,20.47
2019-04-05T21:43:27.060Z,20.17
2019-04-05T21:45:56.845Z,19.93
2019-04-05T21:48:26.392Z,22.00
2019-04-05T21:50:56.078Z,20.53
2019-04-05T21:53:25.693Z,21.90
2019-04-05T21:55:55.382Z,21.02
2019-04-05T21:58:26.010Z,19.93
2019-04-05T22:00:58.324Z,21.90
2019-04-05T22:03:28.068Z,21.70
2019-04-05T22:05:58.491Z,23.53
2019-04-05T22:08:28.032Z,23.67
2019-04-05T22:10:57.821Z,23.33
2019-04-05T22:13:27.362Z,22.17
2019-04-05T22:15:56.916Z,22.20
2019-04-05T22:18:26.728Z,23.43
2019-04-05T22:20:56.291Z,22.90
2019-04-05T22:23:25.957Z,23.23
2019-04-05T22:25:55.661Z,22.67
2019-04-05T22:28:25.215Z,21.73
2019-04-05T22:30:54.775Z,22.87
2019-04-05T22:33:24.580Z,23.33
2019-04-05T22:35:54.128Z,21.57
2019-04-05T22:38:23.676Z,23.40
2019-04-05T22:40:53.360Z,23.30
2019-04-05T22:43:22.901Z,22.23
2019-04-05T22:45:53.331Z,22.90
2019-04-05T22:48:23.034Z,23.57
2019-04-05T22:50:52.725Z,21.97
2019-04-05T22:53:22.433Z,23.27
2019-04-05T22:55:52.274Z,24.00
2019-04-05T22:58:21.925Z,21.27
2019-04-05T23:00:51.720Z,22.97
2019-04-05T23:03:21.352Z,21.07
2019-04-05T23:05:50.896Z,23.77
2019-04-05T23:08:20.477Z,22.47
2019-04-05T23:10:50.612Z,22.73
2019-04-05T23:13:20.323Z,21.80
2019-04-05T23:15:49.872Z,23.50
2019-04-05T23:18:19.760Z,21.87
2019-04-05T23:20:49.452Z,22.57
2019-04-05T23:23:19.015Z,24.40
2019-04-05T23:25:48.565Z,23.00
2019-04-05T23:28:18.361Z,22.50
2019-04-05T23:30:47.902Z,21.97
2019-04-05T23:33:17.608Z,23.13
2019-04-05T23:35:47.693Z,23.00
2019-04-05T23:38:17.247Z,22.27
2019-04-05T23:40:46.876Z,23.20
2019-04-05T23:43:16.617Z,22.33
2019-04-05T23:45:46.535Z,23.30
2019-04-05T23:48:16.097Z,22.30
2019-04-05T23:50:45.636Z,22.95
2019-04-05T23:53:15.368Z,21.83
2019-04-05T23:55:44.918Z,22.33
2019-04-05T23:58:14.888Z,24.07
